Time;durP1;ratioP1;P1;durP2;ratioP2;P2;SDS_P1;SDS_P2;PMS_P1;PMS_P2;Temp;Humidity;BMP_temperature;BMP_pressure;BME280_temperature;BME280_humidity;BME280_pressure;Samples;Min_cycle;Max_cycle;Signal;HPM_P1;HPM_P2
2021/10/17 00:01:37;;;;;;;17.20;8.70;;;14.30;99.90;;;14.65;61.64;101911.13;4842601;29;20042;-68
2021/10/17 00:04:06;;;;;;;15.45;9.05;;;14.30;99.90;;;14.66;61.73;101912.88;4843075;29;20042;-67
2021/10/17 00:06:35;;;;;;;15.02;8.20;;;14.20;99.90;;;14.65;62.03;101910.22;4842239;29;20054;-67
2021/10/17 00:09:06;;;;;;;16.05;8.23;;;14.30;99.90;;;14.61;62.03;101904.03;4840924;29;20054;-67
2021/10/17 00:11:34;;;;;;;20.30;8.93;;;14.20;99.90;;;14.48;62.56;101897.84;4842216;29;20126;-67
2021/10/17 00:14:03;;;;;;;15.38;8.63;;;14.20;99.90;;;14.48;62.78;101900.50;4841884;29;20046;-68
2021/10/17 00:16:31;;;;;;;20.23;8.95;;;14.10;99.90;;;14.42;63.07;101891.66;4841919;29;20124;-67
2021/10/17 00:18:59;;;;;;;17.90;9.35;;;14.10;99.90;;;14.34;63.28;101899.66;4841503;29;20050;-67
2021/10/17 00:21:28;;;;;;;17.30;9.35;;;14.00;99.90;;;14.33;63.05;101889.94;4841962;29;20497;-68
2021/10/17 00:23:57;;;;;;;21.48;9.10;;;14.00;99.90;;;14.23;63.44;101897.91;4842158;29;20077;-67
2021/10/17 00:26:26;;;;;;;17.38;9.55;;;13.90;99.90;;;14.14;63.99;101892.59;4842309;29;20054;-67
2021/10/17 00:28:54;;;;;;;18.98;9.60;;;13.90;99.90;;;14.24;64.03;101897.03;4842399;29;20054;-70
2021/10/17 00:31:25;;;;;;;25.83;9.82;;;13.90;99.90;;;14.26;64.10;101901.47;4841015;29;20468;-68
2021/10/17 00:33:53;;;;;;;18.50;9.35;;;13.90;99.90;;;14.24;64.04;101895.25;4840801;29;20078;-67
2021/10/17 00:36:22;;;;;;;19.65;9.27;;;13.90;99.90;;;14.23;64.11;101895.22;4841855;29;20054;-68
2021/10/17 00:38:50;;;;;;;18.17;9.40;;;13.90;99.90;;;14.32;63.88;101895.25;4840657;29;20053;-68
2021/10/17 00:41:20;;;;;;;20.40;9.15;;;14.00;99.90;;;14.32;64.00;101897.94;4841661;29;20452;-67
2021/10/17 00:43:49;;;;;;;25.63;9.07;;;14.00;99.90;;;14.34;64.00;101898.81;4841595;29;20041;-67
2021/10/17 00:46:19;;;;;;;21.27;9.70;;;14.00;99.90;;;14.40;63.90;101898.78;4840527;29;20050;-68
2021/10/17 00:48:49;;;;;;;19.90;8.65;;;14.00;99.90;;;14.39;64.02;101886.34;4841805;29;20054;-67
2021/10/17 00:51:18;;;;;;;19.08;9.27;;;14.10;99.90;;;14.38;64.21;101896.09;4841824;29;20134;-67
2021/10/17 00:53:46;;;;;;;17.60;8.52;;;14.10;99.90;;;14.32;64.46;101889.94;4841483;29;20066;-68
2021/10/17 00:56:14;;;;;;;15.45;9.07;;;14.10;99.90;;;14.37;64.38;101894.34;4841548;29;20458;-67
2021/10/17 00:58:44;;;;;;;17.98;8.20;;;14.10;99.90;;;14.29;64.52;101890.81;4840429;29;20058;-67
2021/10/17 01:01:12;;;;;;;14.70;7.93;;;14.10;99.90;;;14.30;65.15;101887.25;4840529;29;20085;-68
2021/10/17 01:03:41;;;;;;;16.85;8.68;;;14.00;99.90;;;14.29;65.27;101889.94;4841687;29;20302;-67
2021/10/17 01:06:12;;;;;;;19.92;8.57;;;14.00;99.90;;;14.28;65.21;101888.19;4840435;29;20046;-67
2021/10/17 01:08:42;;;;;;;16.17;8.77;;;14.00;99.90;;;14.29;65.24;101885.50;4840448;29;20054;-68
2021/10/17 01:11:11;;;;;;;20.80;9.18;;;14.00;99.90;;;14.35;65.28;101888.16;4841565;29;20202;-67
2021/10/17 01:13:39;;;;;;;19.88;8.02;;;14.00;99.90;;;14.42;64.80;101878.34;4840191;29;20144;-67
2021/10/17 01:16:09;;;;;;;18.95;9.13;;;14.10;99.90;;;14.42;64.98;101878.34;4840321;29;20103;-67
2021/10/17 01:18:46;;;;;;;19.73;9.48;;;14.10;99.90;;;14.39;64.82;101875.72;4840531;29;20050;-67
2021/10/17 01:21:23;;;;;;;18.20;8.32;;;14.10;99.90;;;14.45;64.68;101881.91;4840451;29;20053;-68
2021/10/17 01:23:54;;;;;;;17.33;8.88;;;14.10;99.90;;;14.51;64.45;101877.44;4840426;29;20100;-68
2021/10/17 01:26:22;;;;;;;16.90;8.63;;;14.20;99.90;;;14.51;64.33;101873.00;4840333;29;20072;-67
2021/10/17 01:28:51;;;;;;;18.23;9.13;;;14.10;99.90;;;14.55;64.23;101871.19;4840363;29;20046;-67
2021/10/17 01:31:19;;;;;;;15.93;8.98;;;14.20;99.90;;;14.48;64.21;101865.91;4843144;29;20458;-67
2021/10/17 01:33:48;;;;;;;21.00;9.02;;;14.20;99.90;;;14.43;64.76;101872.16;4843563;29;20531;-68
2021/10/17 01:36:16;;;;;;;16.95;8.50;;;14.10;99.90;;;14.48;64.76;101866.81;4843653;29;20141;-67
2021/10/17 01:38:47;;;;;;;16.95;9.30;;;14.10;99.90;;;14.44;64.95;101873.91;4843701;29;20057;-68
2021/10/17 01:41:17;;;;;;;20.85;8.80;;;14.10;99.90;;;14.45;65.21;101871.25;4843700;29;20064;-67
2021/10/17 01:43:46;;;;;;;15.75;8.52;;;14.20;99.90;;;14.48;65.02;101870.34;4843342;29;20081;-67
2021/10/17 01:46:15;;;;;;;17.65;8.77;;;14.20;99.90;;;14.45;65.05;101870.38;4844594;29;20481;-69
2021/10/17 01:48:45;;;;;;;19.17;8.95;;;14.10;99.90;;;14.46;65.22;101875.66;4843598;29;20053;-67
2021/10/17 01:51:14;;;;;;;19.95;9.38;;;14.10;99.90;;;14.44;65.17;101866.81;4843723;29;20050;-68
2021/10/17 01:53:43;;;;;;;16.27;8.57;;;14.10;99.90;;;14.42;65.27;101871.25;4843305;29;20401;-68
2021/10/17 01:56:15;;;;;;;18.50;9.52;;;14.10;99.90;;;14.37;65.68;101864.19;4843620;29;20050;-67
2021/10/17 01:58:43;;;;;;;19.53;8.97;;;14.10;99.90;;;14.25;65.90;101856.19;4843308;29;20065;-67
2021/10/17 02:01:12;;;;;;;22.30;9.38;;;14.00;99.90;;;14.27;65.96;101858.00;4843132;29;20042;-67
2021/10/17 02:03:42;;;;;;;14.15;8.73;;;13.90;99.90;;;14.22;66.30;101867.75;4843279;29;20054;-67
2021/10/17 02:06:11;;;;;;;21.52;9.63;;;13.90;99.90;;;14.23;66.13;101855.31;4844536;29;20046;-67
2021/10/17 02:08:39;;;;;;;21.30;9.85;;;13.90;99.90;;;14.05;66.65;101848.28;4843201;29;20061;-68
2021/10/17 02:11:09;;;;;;;15.98;8.30;;;13.80;99.90;;;13.95;67.11;101848.31;4844223;29;20042;-67
2021/10/17 02:13:39;;;;;;;19.67;9.63;;;13.70;99.90;;;13.96;67.14;101853.63;4842806;29;20450;-68
2021/10/17 02:16:09;;;;;;;19.52;9.30;;;13.60;99.90;;;13.95;67.16;101853.66;4843256;29;20058;-68
2021/10/17 02:18:38;;;;;;;17.13;9.03;;;13.70;99.90;;;13.93;67.22;101852.75;4844091;29;20053;-68
2021/10/17 02:21:07;;;;;;;21.42;9.75;;;13.60;99.90;;;13.82;67.38;101839.47;4842654;29;20552;-67
2021/10/17 02:23:35;;;;;;;18.77;8.77;;;13.60;99.90;;;13.91;67.62;101860.75;4842611;29;20073;-67
2021/10/17 02:26:05;;;;;;;22.13;10.13;;;13.60;99.90;;;13.99;67.17;101856.31;4844123;29;20136;-67
2021/10/17 02:28:53;;;;;;;22.85;9.90;;;13.70;99.90;;;14.04;66.96;101862.47;4843576;29;20163;-67
2021/10/17 02:31:23;;;;;;;20.90;9.82;;;13.70;99.90;;;14.05;66.99;101850.94;4842483;29;20050;-67
2021/10/17 02:33:54;;;;;;;23.35;9.82;;;13.70;99.90;;;14.00;67.16;101850.06;4842135;29;20118;-68
2021/10/17 02:36:23;;;;;;;22.55;10.15;;;13.70;99.90;;;14.05;67.01;101837.63;4842558;29;20050;-67
2021/10/17 02:38:52;;;;;;;23.33;10.15;;;13.70;99.90;;;14.12;66.96;101859.78;4842325;29;20045;-67
2021/10/17 02:41:21;;;;;;;17.70;9.60;;;13.80;99.90;;;14.17;67.02;101850.00;4842216;29;20149;-67
2021/10/17 02:43:52;;;;;;;20.15;9.95;;;13.90;99.90;;;14.20;66.85;101850.91;4841317;29;20073;-68
2021/10/17 02:46:21;;;;;;;23.08;11.00;;;13.80;99.90;;;14.11;66.89;101842.06;4843294;29;20046;-70
2021/10/17 02:48:51;;;;;;;23.67;10.80;;;13.90;99.90;;;14.20;66.71;101850.03;4842213;29;20049;-67
2021/10/17 02:51:20;;;;;;;23.27;10.05;;;13.80;99.90;;;14.12;67.26;101835.84;4842139;29;20148;-68
2021/10/17 02:53:50;;;;;;;18.40;10.20;;;13.80;99.90;;;14.07;67.27;101843.84;4841956;29;20070;-68
2021/10/17 02:56:19;;;;;;;18.40;10.18;;;13.80;99.90;;;13.94;67.87;101833.22;4843044;29;20050;-67
2021/10/17 02:58:48;;;;;;;24.33;10.63;;;13.70;99.90;;;13.90;67.80;101831.50;4842078;29;20141;-67
2021/10/17 03:01:19;;;;;;;21.80;11.55;;;13.60;99.90;;;13.76;68.31;101844.84;4842294;29;20102;-67
2021/10/17 03:03:48;;;;;;;24.08;11.82;;;13.50;99.90;;;13.87;68.15;101832.38;4842223;29;20054;-68
2021/10/17 03:06:17;;;;;;;21.25;11.60;;;13.60;99.90;;;13.86;68.13;101829.75;4841927;29;20080;-68
2021/10/17 03:08:46;;;;;;;22.52;11.65;;;13.60;99.90;;;13.83;67.85;101832.38;4841782;29;20058;-67
2021/10/17 03:11:15;;;;;;;26.52;11.63;;;13.60;99.90;;;13.81;68.31;101818.19;4841750;29;20571;-68
2021/10/17 03:13:49;;;;;;;24.55;11.90;;;13.60;99.90;;;13.75;68.25;101819.09;4841647;29;20057;-67
2021/10/17 03:16:28;;;;;;;27.33;12.00;;;13.50;99.90;;;13.63;69.05;101818.25;4841701;29;20148;-68
2021/10/17 03:18:57;;;;;;;22.80;11.50;;;13.50;99.90;;;13.66;68.83;101821.78;4842957;29;20062;-68
2021/10/17 03:21:27;;;;;;;25.35;12.27;;;13.40;99.90;;;13.63;68.96;101824.44;4841575;29;20079;-67
2021/10/17 03:23:55;;;;;;;23.75;12.35;;;13.40;99.90;;;13.69;69.06;101818.22;4841488;29;20153;-67
2021/10/17 03:26:23;;;;;;;22.08;12.32;;;13.40;99.90;;;13.73;69.13;101818.22;4841462;29;20133;-68
2021/10/17 03:28:52;;;;;;;26.05;12.55;;;13.40;99.90;;;13.78;68.89;101818.22;4842729;29;20080;-67
2021/10/17 03:31:20;;;;;;;20.00;11.50;;;13.50;99.90;;;13.75;68.94;101811.13;4841402;29;20090;-67
2021/10/17 03:33:54;;;;;;;24.88;12.95;;;13.50;99.90;;;13.79;68.81;101818.22;4841376;29;20050;-67
2021/10/17 03:36:23;;;;;;;23.65;11.25;;;13.50;99.90;;;13.81;68.59;101810.22;4841368;29;20050;-67
2021/10/17 03:38:53;;;;;;;23.00;11.85;;;13.50;99.90;;;13.78;69.18;101818.22;4841283;29;20501;-67
2021/10/17 03:41:26;;;;;;;27.52;12.30;;;13.50;99.90;;;13.78;69.11;101813.78;4841246;29;20054;-67
2021/10/17 03:43:55;;;;;;;27.13;12.32;;;13.50;99.90;;;13.85;68.54;101810.22;4841205;29;20054;-67
2021/10/17 03:46:25;;;;;;;24.50;12.45;;;13.50;99.90;;;13.80;68.80;101811.13;4841155;29;20085;-68
2021/10/17 03:48:56;;;;;;;26.20;12.68;;;13.50;99.90;;;13.73;68.95;101802.28;4841169;29;20056;-68
2021/10/17 03:51:28;;;;;;;22.67;13.60;;;13.50;99.90;;;13.57;69.39;101800.53;4841228;29;20386;-67
2021/10/17 03:54:00;;;;;;;32.25;14.18;;;13.30;99.90;;;13.46;69.91;101803.22;4840874;29;20084;-68
2021/10/17 03:56:29;;;;;;;25.40;13.23;;;13.20;99.90;;;13.46;70.15;101808.53;4841204;29;20054;-67
2021/10/17 03:58:58;;;;;;;26.83;13.75;;;13.20;99.90;;;13.57;69.91;101805.84;4841179;29;20065;-67
2021/10/17 04:01:27;;;;;;;29.48;13.57;;;13.30;99.90;;;13.58;69.82;101800.53;4841117;29;20214;-67
2021/10/17 04:03:57;;;;;;;25.15;13.45;;;13.30;99.90;;;13.52;69.75;101800.56;4841422;29;20399;-68
2021/10/17 04:06:26;;;;;;;24.63;13.77;;;13.30;99.90;;;13.42;69.74;101797.91;4842150;29;20038;-68
2021/10/17 04:09:01;;;;;;;29.63;14.82;;;13.30;99.90;;;13.41;69.61;101796.13;4840939;29;20073;-68
2021/10/17 04:11:29;;;;;;;29.95;14.30;;;13.30;99.90;;;13.45;69.63;101801.44;4842119;29;20132;-67
2021/10/17 04:13:58;;;;;;;32.83;15.48;;;13.20;99.90;;;13.40;69.81;101797.91;4840713;29;20446;-67
2021/10/17 04:16:27;;;;;;;30.52;14.82;;;13.20;99.90;;;13.37;69.63;101792.59;4840829;29;20090;-67
2021/10/17 04:18:57;;;;;;;30.77;15.50;;;13.20;99.90;;;13.44;69.68;101802.31;4842089;29;20073;-70
2021/10/17 04:21:26;;;;;;;30.73;14.93;;;13.20;99.90;;;13.47;69.78;101791.69;4840849;29;20060;-67
2021/10/17 04:23:57;;;;;;;32.03;15.40;;;13.20;99.90;;;13.37;69.73;101789.06;4840854;29;20106;-68
2021/10/17 04:26:26;;;;;;;36.50;15.38;;;13.20;99.90;;;13.49;69.36;101784.59;4840854;29;20046;-67
2021/10/17 04:28:56;;;;;;;33.88;15.55;;;13.20;99.90;;;13.28;69.62;101760.69;4840883;29;20074;-67
2021/10/17 04:31:24;;;;;;;32.65;15.45;;;13.20;99.90;;;13.46;69.11;101792.59;4840801;29;20054;-67
2021/10/17 04:33:53;;;;;;;28.17;14.77;;;13.20;99.90;;;13.42;69.09;101790.81;4841813;29;20105;-67
2021/10/17 04:36:23;;;;;;;40.03;15.20;;;13.20;99.90;;;13.42;69.13;101788.16;4841713;29;20058;-67
2021/10/17 04:38:52;;;;;;;37.30;14.85;;;13.20;99.90;;;13.54;68.80;101789.91;4840854;29;20110;-67
2021/10/17 04:41:21;;;;;;;34.65;15.18;;;13.20;99.90;;;13.51;68.63;101768.66;4842078;29;20046;-67
2021/10/17 04:43:49;;;;;;;28.08;14.25;;;13.30;99.90;;;13.72;68.44;101794.31;4841981;29;20053;-68
2021/10/17 04:46:18;;;;;;;31.42;13.82;;;13.40;99.90;;;13.71;68.33;101796.06;4840812;29;20057;-67
2021/10/17 04:48:46;;;;;;;32.08;14.45;;;13.40;99.90;;;13.77;67.96;101808.47;4842265;29;20102;-67
2021/10/17 04:51:15;;;;;;;29.80;14.38;;;13.40;99.90;;;13.85;67.71;101817.31;4842408;29;20042;-67
2021/10/17 04:53:47;;;;;;;;;;;13.50;99.90;;;13.90;67.63;101807.56;4841200;29;20080;-67
2021/10/17 04:56:17;;;;;;;34.22;15.18;;;13.60;99.90;;;13.92;67.32;101805.75;4840823;29;19931;-67
2021/10/17 04:58:47;;;;;;;31.38;15.55;;;13.60;99.90;;;13.89;67.54;101797.78;4840690;29;20127;-67
2021/10/17 05:01:15;;;;;;;32.50;14.93;;;13.60;99.90;;;13.90;67.46;101803.09;4841993;29;20054;-68
2021/10/17 05:03:44;;;;;;;28.13;15.50;;;13.60;99.90;;;13.94;67.39;101796.00;4840680;29;20046;-67
2021/10/17 05:06:13;;;;;;;30.65;14.43;;;13.60;99.90;;;13.91;67.28;101798.69;4843442;29;20191;-67
2021/10/17 05:08:42;;;;;;;31.02;15.27;;;13.50;99.90;;;13.93;67.10;101804.88;4844236;29;20054;-67
2021/10/17 05:11:13;;;;;;;30.95;14.95;;;13.50;99.90;;;13.91;67.30;101806.66;4844337;29;20145;-67
2021/10/17 05:13:41;;;;;;;31.42;13.43;;;13.50;99.90;;;13.88;67.09;101806.69;4843866;29;20432;-68
2021/10/17 05:16:11;;;;;;;27.77;14.10;;;13.60;99.90;;;13.95;67.28;101809.31;4843785;29;20056;-68
2021/10/17 05:18:40;;;;;;;31.25;14.63;;;13.60;99.90;;;13.98;67.34;101811.94;4844857;29;20057;-67
2021/10/17 05:21:08;;;;;;;29.52;14.35;;;13.70;99.90;;;13.95;67.12;101809.31;4844773;29;20088;-67
2021/10/17 05:23:37;;;;;;;28.85;14.00;;;13.60;99.90;;;13.97;67.40;101811.97;4843732;29;20075;-68
2021/10/17 05:26:06;;;;;;;25.55;13.43;;;13.60;99.90;;;14.00;67.23;101810.16;4843810;29;20054;-67
2021/10/17 05:28:37;;;;;;;31.90;13.07;;;13.60;99.90;;;14.01;67.64;101813.72;4843639;29;20050;-67
2021/10/17 05:31:07;;;;;;;23.48;12.52;;;13.60;99.90;;;14.06;67.44;101806.59;4843338;29;20061;-67
2021/10/17 05:33:39;;;;;;;25.33;13.50;;;13.70;99.90;;;14.10;67.57;101808.38;4843472;29;20061;-68
2021/10/17 05:36:08;;;;;;;21.35;12.65;;;13.70;99.90;;;14.04;67.37;101797.75;4843385;29;20412;-68
2021/10/17 05:38:36;;;;;;;24.70;13.45;;;13.80;99.90;;;14.10;67.59;101813.69;4843380;29;20053;-67
2021/10/17 05:41:06;;;;;;;22.65;12.45;;;13.70;99.90;;;14.12;67.29;101812.78;4843270;29;20077;-68
2021/10/17 05:43:37;;;;;;;28.92;12.60;;;13.80;99.90;;;14.05;67.64;101816.34;4843178;29;20496;-68
2021/10/17 05:46:05;;;;;;;24.20;12.52;;;13.80;99.90;;;14.01;67.76;101811.06;4843301;29;20137;-68
2021/10/17 05:48:34;;;;;;;31.35;13.27;;;13.70;99.90;;;13.93;68.00;101804.88;4843337;29;20485;-68
2021/10/17 05:51:03;;;;;;;23.55;12.32;;;13.60;99.90;;;13.98;67.83;101811.94;4843237;29;20087;-70
2021/10/17 05:53:32;;;;;;;23.30;12.65;;;13.60;99.90;;;14.00;67.64;101806.63;4843030;29;20196;-67
2021/10/17 05:56:01;;;;;;;26.90;13.43;;;13.70;99.90;;;13.84;67.52;101791.63;4843082;29;20050;-67
2021/10/17 05:58:30;;;;;;;27.63;11.88;;;13.70;99.90;;;13.99;67.75;101818.16;4843178;29;20093;-68
2021/10/17 06:00:59;;;;;;;22.35;11.85;;;13.60;99.90;;;13.99;67.66;101824.38;4843163;29;20116;-68
2021/10/17 06:03:32;;;;;;;27.88;13.10;;;13.70;99.90;;;13.88;67.67;101819.97;4843618;29;20085;-68
2021/10/17 06:06:19;;;;;;;24.17;12.35;;;13.60;99.90;;;13.87;67.70;101837.69;4844595;29;20077;-70
2021/10/17 06:08:54;;;;;;;27.73;12.45;;;13.60;99.90;;;13.93;67.63;101836.81;4843145;29;20050;-68
2021/10/17 06:11:22;;;;;;;26.02;12.50;;;13.60;99.90;;;13.98;67.59;101835.91;4843342;29;20061;-67
2021/10/17 06:13:51;;;;;;;23.45;12.32;;;13.60;99.90;;;13.92;67.66;101829.69;4842763;29;20563;-68
2021/10/17 06:16:20;;;;;;;30.27;12.88;;;13.60;99.90;;;13.85;67.81;101828.84;4843881;29;20045;-68
2021/10/17 06:18:50;;;;;;;;;;;13.60;99.90;;;13.88;67.73;101833.28;4842169;29;20089;-69
2021/10/17 06:21:18;;;;;;;25.95;12.13;;;13.60;99.90;;;13.87;68.14;101835.03;4842533;29;19925;-68
2021/10/17 06:23:47;;;;;;;22.35;11.68;;;13.60;99.90;;;13.94;67.99;101834.13;4842296;29;20181;-68
2021/10/17 06:26:16;;;;;;;24.88;12.32;;;13.60;99.90;;;13.94;67.85;101850.09;4842121;29;20050;-69
2021/10/17 06:28:46;;;;;;;24.02;11.75;;;13.60;99.90;;;13.92;68.05;101845.66;4843450;29;20042;-68
2021/10/17 06:31:14;;;;;;;21.67;12.00;;;13.60;99.90;;;13.99;67.82;101847.44;4842602;29;20046;-68
2021/10/17 06:33:46;;;;;;;;;;;13.60;99.90;;;14.11;67.46;101852.72;4842918;29;20054;-68
2021/10/17 06:36:15;;;;;;;21.10;11.52;;;13.80;99.90;;;14.12;67.81;101857.13;4842488;29;19925;-68
2021/10/17 06:38:44;;;;;;;20.83;10.40;;;13.80;99.90;;;14.19;67.56;101856.22;4842397;29;20058;-68
2021/10/17 06:41:12;;;;;;;21.52;11.25;;;13.80;99.90;;;14.20;67.50;101852.69;4842287;29;20049;-68
2021/10/17 06:43:41;;;;;;;22.15;11.35;;;13.90;99.90;;;14.23;67.17;101857.97;4841992;29;20378;-68
2021/10/17 06:46:15;;;;;;;21.52;10.77;;;13.90;99.90;;;14.28;67.14;101865.13;4842258;29;20053;-68
2021/10/17 06:48:47;;;;;;;25.20;10.98;;;13.90;99.90;;;14.27;67.13;101855.34;4841878;29;20088;-68
2021/10/17 06:51:16;;;;;;;19.63;11.48;;;13.90;99.90;;;14.27;67.38;101858.00;4842114;29;20053;-68
2021/10/17 06:53:44;;;;;;;23.45;11.45;;;13.90;99.90;;;14.15;67.51;101855.34;4843066;29;20515;-68
2021/10/17 06:56:14;;;;;;;22.33;11.00;;;13.90;99.90;;;14.14;67.99;101858.91;4842016;29;20046;-68
2021/10/17 06:58:42;;;;;;;20.35;10.82;;;13.90;99.90;;;14.08;67.95;101853.59;4842235;29;20058;-68
2021/10/17 07:01:11;;;;;;;24.52;11.18;;;13.80;99.90;;;14.01;68.04;101853.63;4841954;29;20485;-68
2021/10/17 07:03:45;;;;;;;23.77;11.30;;;13.80;99.90;;;14.00;68.57;101850.06;4841919;29;20578;-68
2021/10/17 07:06:19;;;;;;;21.88;10.80;;;13.70;99.90;;;14.02;68.71;101847.41;4841573;29;20088;-67
2021/10/17 07:08:55;;;;;;;17.05;10.38;;;13.80;99.90;;;13.99;69.01;101850.97;4841714;29;20049;-68
2021/10/17 07:11:33;;;;;;;21.25;10.82;;;13.70;99.90;;;14.04;68.49;101851.84;4841596;29;20150;-68
2021/10/17 07:14:07;;;;;;;22.65;10.75;;;13.80;99.90;;;14.02;68.93;101858.03;4841823;29;20099;-68
2021/10/17 07:16:49;;;;;;;20.10;10.80;;;13.80;99.90;;;14.09;68.55;101854.50;4842441;29;20057;-68
2021/10/17 07:19:17;;;;;;;18.40;10.07;;;13.80;99.90;;;14.11;68.73;101853.59;4841742;29;20050;-68
2021/10/17 07:21:47;;;;;;;24.38;10.60;;;13.80;99.90;;;14.22;68.48;101850.91;4841464;29;20050;-68
2021/10/17 07:24:16;;;;;;;18.95;10.38;;;13.90;99.90;;;14.20;68.17;101850.03;4841581;29;20061;-68
2021/10/17 07:26:52;;;;;;;21.40;10.43;;;13.90;99.90;;;14.31;68.26;101854.44;4842875;29;20110;-68
2021/10/17 07:29:20;;;;;;;21.90;10.48;;;13.90;99.90;;;14.37;67.85;101864.19;4841037;29;20050;-69
2021/10/17 07:31:49;;;;;;;23.55;10.52;;;14.00;99.90;;;14.29;68.01;101858.88;4842584;29;20081;-68
2021/10/17 07:34:17;;;;;;;19.50;10.02;;;14.00;99.90;;;14.29;68.63;101853.56;4841250;29;20049;-68
2021/10/17 07:36:47;;;;;;;19.75;10.40;;;14.00;99.90;;;14.36;68.67;101865.09;4841375;29;20041;-70
2021/10/17 07:39:21;;;;;;;20.55;9.57;;;14.00;99.90;;;14.41;68.62;101861.50;4841175;29;20049;-69
2021/10/17 07:41:52;;;;;;;22.25;10.25;;;14.10;99.90;;;14.38;68.54;101869.50;4841557;29;20390;-68
2021/10/17 07:44:21;;;;;;;15.45;9.32;;;14.10;99.90;;;14.37;68.52;101874.81;4841329;29;20256;-69
2021/10/17 07:47:06;;;;;;;18.30;9.75;;;14.10;99.90;;;14.38;68.41;101868.63;4841809;29;20488;-68
2021/10/17 07:49:39;;;;;;;19.33;10.23;;;14.10;99.90;;;14.39;68.73;101862.41;4841778;29;20050;-68
2021/10/17 07:52:18;;;;;;;19.80;10.48;;;14.10;99.90;;;14.55;68.31;101872.09;4841536;29;20081;-68
2021/10/17 07:54:46;;;;;;;20.65;10.23;;;14.20;99.90;;;14.63;68.16;101869.41;4842519;29;20089;-68
2021/10/17 07:57:27;;;;;;;19.52;9.73;;;14.30;99.90;;;14.61;67.99;101863.19;4841100;29;20049;-68
2021/10/17 07:59:55;;;;;;;17.67;9.68;;;14.30;99.90;;;14.76;67.79;101871.09;4842450;29;20060;-68
2021/10/17 08:02:28;;;;;;;16.88;9.45;;;14.40;99.90;;;14.73;67.93;101871.13;4841254;29;20054;-69
2021/10/17 08:04:57;;;;;;;23.65;9.95;;;14.40;99.90;;;14.79;67.35;101876.41;4842154;29;20094;-68
2021/10/17 08:07:27;;;;;;;21.80;9.95;;;14.40;99.90;;;14.80;66.71;101870.19;4840839;29;20439;-69
2021/10/17 08:09:56;;;;;;;16.88;9.32;;;14.40;99.90;;;14.82;66.34;101871.97;4841196;29;20061;-68
2021/10/17 08:12:24;;;;;;;20.30;9.90;;;14.50;99.90;;;14.87;65.60;101872.81;4840804;29;20140;-68
2021/10/17 08:14:53;;;;;;;19.17;9.57;;;14.50;99.90;;;14.95;66.50;101873.66;4840649;29;20050;-70
2021/10/17 08:17:21;;;;;;;18.70;9.95;;;14.60;99.90;;;14.99;66.74;101878.06;4840811;29;20075;-68
2021/10/17 08:19:59;;;;;;;18.85;10.50;;;14.70;99.90;;;15.02;67.06;101861.19;4840842;29;20050;-68
2021/10/17 08:22:29;;;;;;;21.00;10.98;;;14.80;99.90;;;15.16;66.71;101884.16;4842367;29;20050;-68
2021/10/17 08:25:02;;;;;;;25.13;11.18;;;14.90;99.90;;;15.26;66.40;101879.66;4841091;29;20106;-69
2021/10/17 08:27:33;;;;;;;18.80;10.27;;;14.90;99.90;;;15.23;65.08;101879.69;4841037;29;20085;-68
2021/10/17 08:30:04;;;;;;;19.25;9.65;;;14.90;99.90;;;15.10;64.56;101878.88;4840423;29;20061;-68
2021/10/17 08:32:38;;;;;;;17.45;9.10;;;14.80;99.90;;;15.14;64.35;101877.06;4840721;29;20471;-68
2021/10/17 08:35:09;;;;;;;18.08;9.20;;;14.70;99.90;;;15.17;64.18;101880.63;4840626;29;20103;-68
2021/10/17 08:37:39;;;;;;;18.77;9.32;;;14.80;99.90;;;15.10;63.86;101884.19;4840284;29;20094;-68
2021/10/17 08:40:13;;;;;;;20.05;9.77;;;14.80;99.90;;;15.17;63.07;101882.38;4842063;29;20061;-68
2021/10/17 08:43:02;;;;;;;23.40;10.25;;;14.80;99.90;;;15.15;64.07;101886.84;4851057;29;20065;-70
2021/10/17 08:45:39;;;;;;;17.38;9.52;;;14.80;99.90;;;15.18;64.38;101876.16;4844330;29;20489;-68
2021/10/17 08:48:11;;;;;;;21.92;10.98;;;14.90;99.90;;;15.31;65.03;101884.03;4844334;29;20057;-68
2021/10/17 08:50:53;;;;;;;24.67;10.60;;;15.00;99.90;;;15.43;65.34;101877.75;4844237;29;20084;-68
2021/10/17 08:53:27;;;;;;;22.95;10.25;;;15.10;99.90;;;15.07;65.09;101825.59;4843919;29;20524;-68
2021/10/17 08:56:00;;;;;;;22.83;9.27;;;15.10;99.90;;;15.30;65.37;101876.97;4843966;29;20053;-68
2021/10/17 08:58:37;;;;;;;22.23;10.27;;;15.00;99.90;;;15.29;65.22;101879.63;4844049;29;20079;-69
2021/10/17 09:01:13;;;;;;;23.55;9.93;;;15.00;99.90;;;15.27;64.78;101879.63;4844080;29;20102;-69
2021/10/17 09:03:53;;;;;;;15.50;10.25;;;15.10;99.90;;;15.27;64.99;101863.63;4843714;29;20050;-68
2021/10/17 09:06:29;;;;;;;19.20;10.30;;;15.00;99.90;;;15.51;64.70;101872.38;4844157;29;20454;-68
2021/10/17 09:09:09;;;;;;;20.42;10.55;;;15.20;99.90;;;15.42;64.11;101881.34;4843900;29;20183;-68
2021/10/17 09:11:43;;;;;;;16.73;10.13;;;15.20;99.90;;;15.54;64.21;101880.34;4843968;29;20054;-68
2021/10/17 09:14:14;;;;;;;22.35;10.32;;;15.20;99.90;;;15.58;63.76;101874.09;4844868;29;20060;-68
2021/10/17 09:16:46;;;;;;;21.95;11.13;;;15.30;99.90;;;15.61;63.69;101882.97;4845055;29;20054;-69
2021/10/17 09:19:21;;;;;;;17.48;10.45;;;15.30;99.90;;;15.63;63.58;101877.59;4845283;29;20049;-68
2021/10/17 09:22:00;;;;;;;18.73;10.57;;;15.30;99.90;;;15.70;63.85;101882.00;4845290;29;20053;-68
2021/10/17 09:24:34;;;;;;;20.65;9.90;;;15.40;99.90;;;15.64;64.05;101880.25;4843427;29;20455;-69
2021/10/17 09:27:11;;;;;;;20.20;11.27;;;15.30;99.90;;;15.54;64.17;101885.69;4843467;29;20046;-68
2021/10/17 09:29:45;;;;;;;21.40;11.45;;;15.30;99.90;;;15.39;64.22;101884.88;4844819;29;20053;-67
2021/10/17 09:32:17;;;;;;;23.90;11.88;;;15.20;99.90;;;15.37;64.80;101889.34;4844973;29;20054;-68
2021/10/17 09:34:57;;;;;;;22.30;11.25;;;15.10;99.90;;;15.39;65.19;101892.88;4844910;29;20561;-69
2021/10/17 09:37:34;;;;;;;28.02;11.40;;;15.10;99.90;;;15.45;64.84;101896.44;4843671;29;20054;-68
2021/10/17 09:40:28;;;;;;;22.70;10.65;;;15.20;99.90;;;15.48;65.14;101888.41;4846476;29;20358;-69
2021/10/17 09:43:09;;;;;;;21.42;11.32;;;15.20;99.90;;;15.51;65.67;101891.03;4844897;29;20058;-68
2021/10/17 09:45:47;;;;;;;20.98;11.50;;;15.20;99.90;;;15.51;64.76;101899.94;4843563;29;20544;-69
2021/10/17 09:48:29;;;;;;;24.02;11.65;;;15.30;99.90;;;15.59;64.20;101892.75;4844723;29;20049;-68
2021/10/17 09:51:02;;;;;;;21.98;12.00;;;15.30;99.90;;;15.79;64.37;101903.25;4843024;29;20054;-69
2021/10/17 09:53:44;;;;;;;22.23;12.18;;;15.40;99.90;;;15.85;63.24;101887.19;4843925;29;20920;-68
2021/10/17 09:56:30;;;;;;;24.40;12.38;;;15.50;99.90;;;15.93;63.48;101885.34;4844306;29;20490;-69
2021/10/17 09:59:01;;;;;;;21.20;11.52;;;15.60;99.90;;;16.00;62.96;101893.25;4844432;29;20046;-69
2021/10/17 10:01:30;;;;;;;21.65;12.27;;;15.70;99.90;;;15.92;62.93;101884.44;4843977;29;20046;-69
2021/10/17 10:04:02;;;;;;;21.27;12.50;;;15.70;99.90;;;16.00;62.48;101892.38;4842971;29;20075;-68
2021/10/17 10:06:32;;;;;;;23.05;11.57;;;15.70;99.90;;;16.08;62.83;101880.72;4843942;29;20133;-68
2021/10/17 10:09:03;;;;;;;21.65;11.93;;;15.80;99.90;;;16.22;63.91;101884.09;4843941;29;20497;-69
2021/10/17 10:11:35;;;;;;;20.70;13.10;;;15.90;99.90;;;16.28;63.46;101873.34;4843964;29;20053;-69
2021/10/17 10:14:07;;;;;;;24.60;12.88;;;16.00;99.90;;;16.33;64.08;101878.66;4842853;29;20050;-69
2021/10/17 10:16:37;;;;;;;21.98;12.20;;;16.10;99.90;;;16.39;63.24;101878.59;4843682;29;20053;-68
2021/10/17 10:19:08;;;;;;;22.73;11.97;;;16.10;99.90;;;16.45;63.55;101880.28;4843685;29;20093;-69